createdAt,value
2018-03-04T00:01:48.115Z,16.80
2018-03-04T00:04:16.034Z,16.85
2018-03-04T00:06:43.942Z,16.50
2018-03-04T00:09:11.867Z,15.77
2018-03-04T00:11:39.806Z,18.05
2018-03-04T00:14:07.715Z,18.37
2018-03-04T00:16:35.687Z,18.12
2018-03-04T00:19:03.600Z,17.67
2018-03-04T00:21:31.499Z,17.23
2018-03-04T00:23:59.629Z,15.80
2018-03-04T00:26:27.532Z,15.43
2018-03-04T00:28:55.448Z,16.83
2018-03-04T00:31:23.357Z,16.27
2018-03-04T00:33:51.256Z,14.90
2018-03-04T00:36:19.179Z,16.85
2018-03-04T00:38:47.112Z,15.73
2018-03-04T00:41:15.024Z,16.42
2018-03-04T00:43:42.931Z,17.73
2018-03-04T00:46:11.252Z,16.95
2018-03-04T00:48:39.364Z,15.80
2018-03-04T00:51:07.274Z,15.75
2018-03-04T00:53:35.410Z,15.48
2018-03-04T00:56:03.331Z,15.80
2018-03-04T00:58:31.239Z,15.98
2018-03-04T01:00:59.163Z,15.65
2018-03-04T01:03:27.083Z,16.95
2018-03-04T01:05:55.012Z,16.10
2018-03-04T01:08:22.938Z,16.60
2018-03-04T01:10:50.844Z,15.05
2018-03-04T01:13:18.827Z,16.67
2018-03-04T01:15:46.751Z,17.92
2018-03-04T01:18:14.674Z,15.25
2018-03-04T01:20:42.600Z,16.92
2018-03-04T01:23:10.507Z,16.25
2018-03-04T01:25:38.414Z,16.77
2018-03-04T01:28:06.652Z,17.62
2018-03-04T01:30:34.564Z,17.95
2018-03-04T01:33:02.467Z,16.83
2018-03-04T01:35:30.401Z,18.60
2018-03-04T01:37:58.328Z,15.95
2018-03-04T01:40:26.218Z,16.75
2018-03-04T01:42:54.148Z,16.55
2018-03-04T01:45:22.062Z,16.67
2018-03-04T01:47:50.647Z,17.25
2018-03-04T01:50:18.570Z,15.65
2018-03-04T01:52:46.481Z,15.75
2018-03-04T01:55:14.391Z,16.45
2018-03-04T01:57:42.283Z,17.33
2018-03-04T02:00:10.211Z,17.67
2018-03-04T02:02:38.391Z,17.37
2018-03-04T02:05:06.286Z,17.83
2018-03-04T02:07:34.280Z,18.25
2018-03-04T02:10:02.543Z,16.98
2018-03-04T02:12:30.449Z,16.00
2018-03-04T02:14:58.378Z,16.98
2018-03-04T02:17:26.283Z,16.83
2018-03-04T02:19:54.187Z,18.23
2018-03-04T02:22:22.079Z,17.23
2018-03-04T02:24:50.036Z,17.98
2018-03-04T02:27:17.937Z,18.55
2018-03-04T02:29:45.835Z,17.33
2018-03-04T02:32:13.805Z,17.67
2018-03-04T02:34:41.728Z,18.33
2018-03-04T02:37:09.618Z,19.52
2018-03-04T02:39:37.522Z,17.75
2018-03-04T02:42:05.439Z,20.23
2018-03-04T02:44:33.563Z,18.10
2018-03-04T02:47:01.471Z,19.58
2018-03-04T02:49:30.115Z,19.58
2018-03-04T02:51:58.196Z,20.95
2018-03-04T02:54:26.115Z,18.90
2018-03-04T02:56:54.038Z,19.87
2018-03-04T02:59:21.981Z,21.00
2018-03-04T03:01:49.915Z,19.73
2018-03-04T03:04:17.817Z,19.55
2018-03-04T03:06:45.736Z,19.62
2018-03-04T03:09:13.668Z,18.67
2018-03-04T03:11:41.602Z,20.65
2018-03-04T03:14:09.548Z,18.92
2018-03-04T03:16:37.463Z,19.90
2018-03-04T03:19:05.377Z,20.02
2018-03-04T03:21:33.274Z,20.17
2018-03-04T03:24:01.210Z,20.85
2018-03-04T03:26:29.172Z,20.12
2018-03-04T03:28:57.080Z,20.80
2018-03-04T03:31:25.006Z,21.05
2018-03-04T03:33:52.935Z,21.98
2018-03-04T03:36:20.840Z,21.77
2018-03-04T03:38:48.762Z,22.10
2018-03-04T03:41:16.739Z,20.77
2018-03-04T03:43:44.662Z,20.65
2018-03-04T03:46:12.555Z,21.92
2018-03-04T03:48:40.676Z,20.00
2018-03-04T03:51:08.636Z,20.40
2018-03-04T03:53:36.540Z,21.90
2018-03-04T03:56:04.467Z,21.75
2018-03-04T03:58:32.359Z,22.40
2018-03-04T04:01:00.273Z,21.67
2018-03-04T04:03:28.188Z,21.62
2018-03-04T04:05:56.100Z,22.30
2018-03-04T04:08:24.032Z,20.80
2018-03-04T04:10:51.951Z,19.98
2018-03-04T04:13:19.883Z,23.67
2018-03-04T04:15:47.787Z,21.55
2018-03-04T04:18:15.713Z,22.08
2018-03-04T04:20:43.618Z,22.02
2018-03-04T04:23:11.539Z,20.45
2018-03-04T04:25:39.461Z,20.40
2018-03-04T04:28:07.379Z,21.75
2018-03-04T04:33:10.188Z,21.60
2018-03-04T04:35:38.431Z,20.37
2018-03-04T04:38:06.319Z,23.00
2018-03-04T04:40:34.231Z,20.48
2018-03-04T04:43:02.131Z,21.10
2018-03-04T04:45:30.055Z,22.95
2018-03-04T04:47:57.950Z,21.85
2018-03-04T04:50:25.878Z,22.55
2018-03-04T04:52:54.600Z,24.48
2018-03-04T04:55:22.519Z,21.98
2018-03-04T04:57:50.427Z,21.05
2018-03-04T05:00:18.332Z,22.42
2018-03-04T05:02:46.287Z,21.90
2018-03-04T05:07:35.392Z,23.70
2018-03-04T05:10:03.329Z,23.55
2018-03-04T05:12:31.262Z,22.20
2018-03-04T05:14:59.156Z,22.75
2018-03-04T05:17:27.095Z,22.48
2018-03-04T05:19:55.024Z,23.92
2018-03-04T05:22:22.922Z,21.77
2018-03-04T05:24:50.891Z,23.95
2018-03-04T05:27:18.818Z,23.20
2018-03-04T05:29:46.735Z,23.48
2018-03-04T05:32:14.651Z,21.90
2018-03-04T05:34:42.568Z,25.08
2018-03-04T05:37:10.503Z,25.58
2018-03-04T05:39:38.595Z,23.30
2018-03-04T05:42:06.516Z,25.10
2018-03-04T05:44:34.429Z,24.05
2018-03-04T05:47:02.379Z,24.45
2018-03-04T05:49:30.327Z,24.30
2018-03-04T05:51:58.223Z,22.65
2018-03-04T05:54:26.751Z,22.98
2018-03-04T05:56:54.679Z,23.15
2018-03-04T05:59:22.587Z,22.30
2018-03-04T06:01:50.503Z,22.92
2018-03-04T06:04:18.426Z,22.25
2018-03-04T06:06:46.335Z,23.15
2018-03-04T06:09:14.255Z,23.85
2018-03-04T06:11:42.147Z,23.35
2018-03-04T06:14:10.141Z,24.40
2018-03-04T06:16:38.052Z,24.48
2018-03-04T06:19:06.155Z,23.52
2018-03-04T06:21:34.072Z,22.40
2018-03-04T06:24:02.028Z,23.02
2018-03-04T06:26:29.971Z,23.83
2018-03-04T06:28:57.872Z,22.70
2018-03-04T06:31:25.804Z,22.10
2018-03-04T06:33:53.712Z,23.08
2018-03-04T06:36:21.636Z,24.17
2018-03-04T06:38:49.607Z,23.55
2018-03-04T06:41:17.559Z,23.35
2018-03-04T06:43:45.508Z,22.35
2018-03-04T06:46:13.420Z,20.05
2018-03-04T06:48:41.324Z,22.70
2018-03-04T06:51:09.282Z,23.20
2018-03-04T06:53:37.208Z,22.37
2018-03-04T06:56:05.152Z,22.67
2018-03-04T06:58:33.458Z,24.85
2018-03-04T07:01:01.376Z,22.17
2018-03-04T07:03:29.296Z,24.58
2018-03-04T07:05:57.207Z,23.45
2018-03-04T07:08:25.151Z,21.87
2018-03-04T07:10:53.068Z,20.90
2018-03-04T07:13:21.008Z,23.10
2018-03-04T07:15:48.923Z,22.90
2018-03-04T07:18:16.835Z,24.08
2018-03-04T07:20:44.747Z,24.17
2018-03-04T07:23:12.703Z,23.75
2018-03-04T07:25:40.816Z,22.10
2018-03-04T07:28:08.717Z,24.08
2018-03-04T07:30:36.653Z,25.12
2018-03-04T07:33:04.995Z,24.40
2018-03-04T07:35:32.933Z,25.30
2018-03-04T07:38:00.847Z,25.25
2018-03-04T07:40:28.755Z,27.23
2018-03-04T07:42:56.660Z,25.65
2018-03-04T07:45:24.580Z,26.20
2018-03-04T07:47:52.488Z,25.62
2018-03-04T07:50:20.427Z,25.75
2018-03-04T07:52:48.340Z,23.73
2018-03-04T07:55:16.263Z,26.17
2018-03-04T07:57:44.447Z,26.85
2018-03-04T08:00:12.421Z,25.42
2018-03-04T08:02:40.326Z,25.48
2018-03-04T08:05:08.263Z,26.20
2018-03-04T08:07:36.544Z,26.60
2018-03-04T08:10:04.435Z,27.10
2018-03-04T08:12:32.360Z,25.92
2018-03-04T08:15:00.271Z,25.08
2018-03-04T08:17:28.185Z,25.42
2018-03-04T08:19:56.103Z,26.23
2018-03-04T08:22:24.012Z,25.50
2018-03-04T08:24:58.040Z,26.85
2018-03-04T08:27:32.105Z,27.40
2018-03-04T08:30:00.012Z,27.85
2018-03-04T08:32:27.916Z,25.88
2018-03-04T08:34:55.834Z,27.02
2018-03-04T08:37:23.741Z,28.27
2018-03-04T08:39:51.660Z,28.25
2018-03-04T08:42:19.581Z,27.50
2018-03-04T08:44:47.501Z,28.17
2018-03-04T08:47:15.439Z,30.20
2018-03-04T08:49:43.359Z,28.60
2018-03-04T08:52:11.303Z,27.00
2018-03-04T08:54:39.229Z,27.00
2018-03-04T08:57:08.293Z,30.40
2018-03-04T08:59:36.626Z,30.30
2018-03-04T09:02:04.587Z,28.12
2018-03-04T09:04:32.547Z,28.17
2018-03-04T09:07:00.456Z,27.80
2018-03-04T09:09:28.388Z,29.23
2018-03-04T09:11:56.295Z,29.75
2018-03-04T09:14:24.219Z,29.45
2018-03-04T09:16:52.199Z,27.62
2018-03-04T09:19:20.118Z,29.55
2018-03-04T09:21:48.059Z,31.60
2018-03-04T09:24:16.011Z,28.80
2018-03-04T09:26:43.956Z,30.52
2018-03-04T09:29:11.902Z,28.50
2018-03-04T09:31:39.811Z,32.65
2018-03-04T09:34:07.767Z,31.20
2018-03-04T09:36:37.757Z,29.65
2018-03-04T09:39:04.748Z,30.58
2018-03-04T09:41:31.646Z,28.95
2018-03-04T09:43:57.856Z,30.85
2018-03-04T09:46:24.020Z,31.20
2018-03-04T09:48:50.205Z,33.17
2018-03-04T09:51:17.122Z,30.48
2018-03-04T09:53:44.168Z,29.58
2018-03-04T09:56:10.339Z,34.45
2018-03-04T09:58:37.258Z,32.35
2018-03-04T10:01:03.693Z,32.67
2018-03-04T10:03:29.849Z,30.33
2018-03-04T10:05:56.785Z,32.80
2018-03-04T10:08:23.001Z,32.33
2018-03-04T10:10:49.199Z,30.23
2018-03-04T10:13:16.107Z,32.15
2018-03-04T10:15:42.275Z,31.95
2018-03-04T10:18:08.447Z,32.45
2018-03-04T10:20:34.597Z,32.10
2018-03-04T10:23:00.784Z,31.42
2018-03-04T10:25:26.954Z,31.52
2018-03-04T10:27:53.108Z,32.58
2018-03-04T10:30:19.290Z,31.87
2018-03-04T10:32:45.492Z,32.97
2018-03-04T10:35:11.660Z,34.03
2018-03-04T10:37:37.815Z,30.95
2018-03-04T10:40:03.996Z,31.48
2018-03-04T10:42:30.906Z,34.22
2018-03-04T10:44:57.131Z,33.13
2018-03-04T10:47:23.313Z,33.95
2018-03-04T10:49:49.524Z,33.05
2018-03-04T10:52:16.436Z,31.55
2018-03-04T10:54:43.348Z,36.30
2018-03-04T10:57:09.511Z,35.15
2018-03-04T10:59:35.682Z,33.40
2018-03-04T11:02:04.158Z,33.67
2018-03-04T11:04:30.335Z,35.33
2018-03-04T11:06:57.240Z,34.88
2018-03-04T11:09:23.444Z,36.85
2018-03-04T11:11:49.620Z,37.30
2018-03-04T11:14:15.824Z,34.97
2018-03-04T11:16:42.259Z,35.53
2018-03-04T11:19:08.430Z,35.85
2018-03-04T11:21:34.630Z,34.92
2018-03-04T11:24:00.779Z,35.38
2018-03-04T11:26:27.013Z,36.75
2018-03-04T11:28:54.052Z,35.42
2018-03-04T11:31:20.579Z,37.00
2018-03-04T11:33:47.116Z,37.47
2018-03-04T11:36:14.019Z,39.58
2018-03-04T11:38:42.218Z,37.58
2018-03-04T11:41:09.218Z,39.05
2018-03-04T11:43:35.375Z,39.08
2018-03-04T11:46:02.326Z,38.55
2018-03-04T11:48:28.520Z,39.53
2018-03-04T11:50:54.668Z,40.78
2018-03-04T11:53:21.117Z,41.78
2018-03-04T11:55:47.303Z,41.95
2018-03-04T11:58:13.473Z,40.03
2018-03-04T12:00:39.673Z,39.50
2018-03-04T12:03:06.086Z,40.33
2018-03-04T12:05:33.828Z,42.53
2018-03-04T12:08:00.131Z,38.40
2018-03-04T12:10:27.041Z,37.63
2018-03-04T12:12:53.260Z,40.90
2018-03-04T12:15:21.644Z,41.88
2018-03-04T12:17:51.070Z,40.28
2018-03-04T12:20:20.005Z,40.42
2018-03-04T12:22:48.893Z,40.42
2018-03-04T12:25:17.855Z,40.58
2018-03-04T12:27:44.606Z,41.53
2018-03-04T12:30:12.355Z,40.67
2018-03-04T12:32:38.904Z,40.42
2018-03-04T12:35:05.819Z,40.42
2018-03-04T12:37:32.695Z,38.95
2018-03-04T12:39:59.932Z,42.08
2018-03-04T12:42:26.094Z,41.08
2018-03-04T12:44:52.253Z,39.80
2018-03-04T12:47:18.468Z,41.88
2018-03-04T12:49:44.656Z,40.40
2018-03-04T12:52:10.818Z,43.45
2018-03-04T12:54:37.737Z,43.63
2018-03-04T12:57:03.914Z,40.40
2018-03-04T12:59:30.843Z,43.17
2018-03-04T13:01:58.479Z,42.22
2018-03-04T13:04:25.639Z,43.17
2018-03-04T13:06:51.849Z,44.10
2018-03-04T13:09:18.004Z,44.53
2018-03-04T13:11:44.348Z,43.90
2018-03-04T13:14:10.524Z,42.62
2018-03-04T13:16:38.473Z,42.88
2018-03-04T13:19:06.805Z,41.72
2018-03-04T13:21:33.495Z,44.97
2018-03-04T13:24:00.653Z,42.40
2018-03-04T13:26:29.054Z,43.37
2018-03-04T13:28:55.834Z,43.17
2018-03-04T13:31:21.985Z,43.90
2018-03-04T13:33:48.431Z,42.72
2018-03-04T13:36:15.358Z,42.33
2018-03-04T13:38:41.532Z,43.08
2018-03-04T13:41:07.748Z,45.83
2018-03-04T13:43:33.902Z,43.10
2018-03-04T13:46:00.068Z,43.58
2018-03-04T13:48:26.224Z,41.55
2018-03-04T13:50:52.382Z,41.20
2018-03-04T13:53:18.598Z,40.85
2018-03-04T13:55:44.751Z,40.30
2018-03-04T13:58:10.912Z,43.20
2018-03-04T14:00:37.178Z,45.88
2018-03-04T14:03:03.294Z,45.25
2018-03-04T14:05:29.584Z,42.65
2018-03-04T14:07:57.691Z,42.08
2018-03-04T14:10:23.841Z,42.10
2018-03-04T14:12:51.744Z,40.60
2018-03-04T14:15:19.675Z,42.25
2018-03-04T14:17:45.840Z,41.60
2018-03-04T14:20:12.024Z,41.17
2018-03-04T14:22:38.179Z,44.33
2018-03-04T14:25:05.104Z,43.97
2018-03-04T14:27:31.276Z,43.97
2018-03-04T14:29:58.420Z,42.55
2018-03-04T14:32:26.343Z,42.22
2018-03-04T14:34:52.777Z,45.78
2018-03-04T14:37:18.940Z,41.97
2018-03-04T14:39:46.859Z,40.80
2018-03-04T14:42:15.076Z,39.78
2018-03-04T14:44:41.253Z,44.20
2018-03-04T14:47:07.457Z,43.40
2018-03-04T14:49:33.636Z,43.05
2018-03-04T14:52:00.536Z,41.53
2018-03-04T14:54:26.694Z,43.03
2018-03-04T14:56:52.887Z,44.40
2018-03-04T14:59:19.065Z,41.37
2018-03-04T15:01:45.216Z,44.17
2018-03-04T15:04:12.128Z,42.35
2018-03-04T15:06:38.672Z,43.25
2018-03-04T15:09:04.846Z,43.67
2018-03-04T15:11:31.036Z,43.85
2018-03-04T15:13:57.202Z,43.15
2018-03-04T15:16:23.397Z,44.38
2018-03-04T15:18:49.596Z,43.30
2018-03-04T15:21:15.812Z,43.33
2018-03-04T15:23:42.727Z,41.50
2018-03-04T15:26:09.659Z,42.55
2018-03-04T15:28:36.553Z,42.83
2018-03-04T15:31:02.709Z,44.60
2018-03-04T15:33:28.867Z,42.85
2018-03-04T15:35:55.049Z,41.63
2018-03-04T15:38:21.196Z,41.80
2018-03-04T15:40:48.099Z,40.55
2018-03-04T15:43:14.653Z,41.85
2018-03-04T15:45:40.787Z,42.33
2018-03-04T15:48:06.964Z,42.78
2018-03-04T15:50:33.188Z,42.20
2018-03-04T15:53:00.115Z,43.15
2018-03-04T15:55:26.246Z,44.95
2018-03-04T15:57:52.467Z,43.30
2018-03-04T16:00:18.639Z,44.85
2018-03-04T16:02:45.535Z,44.13
2018-03-04T16:05:11.750Z,41.35
2018-03-04T16:07:38.156Z,42.85
2018-03-04T16:10:05.069Z,42.25
2018-03-04T16:12:31.621Z,43.22
2018-03-04T16:14:57.786Z,45.65
2018-03-04T16:17:24.384Z,42.67
2018-03-04T16:19:50.613Z,40.17
2018-03-04T16:22:16.769Z,41.40
2018-03-04T16:24:42.908Z,43.95
2018-03-04T16:27:09.839Z,42.60
2018-03-04T16:29:35.999Z,45.42
2018-03-04T16:32:02.218Z,41.83
2018-03-04T16:34:28.415Z,47.97
2018-03-04T16:36:54.642Z,41.50
2018-03-04T16:39:21.503Z,42.22
2018-03-04T16:41:47.705Z,44.55
2018-03-04T16:44:13.858Z,43.70
2018-03-04T16:46:40.016Z,42.92
2018-03-04T16:49:06.455Z,41.92
2018-03-04T16:51:32.656Z,44.15
2018-03-04T16:53:58.816Z,45.38
2018-03-04T16:56:25.139Z,44.15
2018-03-04T16:58:51.341Z,42.75
2018-03-04T17:01:18.240Z,45.60
2018-03-04T17:03:44.428Z,43.10
2018-03-04T17:06:10.632Z,44.30
2018-03-04T17:08:37.076Z,47.22
2018-03-04T17:11:03.279Z,42.78
2018-03-04T17:13:29.439Z,44.67
2018-03-04T17:15:55.654Z,45.58
2018-03-04T17:18:21.825Z,46.03
2018-03-04T17:20:48.740Z,47.25
2018-03-04T17:23:14.891Z,43.25
2018-03-04T17:25:41.059Z,44.35
2018-03-04T17:28:07.235Z,43.00
2018-03-04T17:30:33.386Z,45.90
2018-03-04T17:32:59.771Z,44.72
2018-03-04T17:35:25.971Z,42.65
2018-03-04T17:37:52.861Z,45.40
2018-03-04T17:40:19.120Z,43.97
2018-03-04T17:42:45.263Z,44.97
2018-03-04T17:45:13.370Z,45.50
2018-03-04T17:47:39.839Z,45.38
2018-03-04T17:50:06.003Z,43.80
2018-03-04T17:52:32.159Z,42.03
2018-03-04T17:54:58.328Z,40.83
2018-03-04T17:57:24.696Z,43.20
2018-03-04T17:59:50.884Z,43.97
2018-03-04T18:02:17.792Z,44.35
2018-03-04T18:04:43.956Z,45.70
2018-03-04T18:07:10.118Z,44.80
2018-03-04T18:09:36.488Z,44.85
2018-03-04T18:12:02.650Z,43.50
2018-03-04T18:14:28.800Z,44.33
2018-03-04T18:16:54.981Z,43.50
2018-03-04T18:19:21.191Z,42.10
2018-03-04T18:21:47.376Z,45.40
2018-03-04T18:24:13.694Z,43.90
2018-03-04T18:26:39.876Z,43.97
2018-03-04T18:29:06.048Z,42.72
2018-03-04T18:31:32.360Z,45.15
2018-03-04T18:33:59.255Z,41.30
2018-03-04T18:36:26.207Z,44.17
2018-03-04T18:38:52.393Z,42.33
2018-03-04T18:41:18.795Z,44.05
2018-03-04T18:43:45.720Z,43.87
2018-03-04T18:46:11.883Z,42.72
2018-03-04T18:48:38.184Z,41.50
2018-03-04T18:51:04.348Z,41.15
2018-03-04T18:53:30.529Z,41.80
2018-03-04T18:55:56.888Z,42.10
2018-03-04T18:58:23.047Z,42.92
2018-03-04T19:00:49.596Z,40.65
2018-03-04T19:03:15.775Z,44.25
2018-03-04T19:05:41.951Z,45.33
2018-03-04T19:08:08.140Z,41.53
2018-03-04T19:10:34.528Z,42.30
2018-03-04T19:13:00.684Z,43.03
2018-03-04T19:15:27.577Z,42.10
2018-03-04T19:17:53.776Z,42.15
2018-03-04T19:20:20.664Z,40.72
2018-03-04T19:22:46.815Z,42.08
2018-03-04T19:25:12.991Z,42.03
2018-03-04T19:27:39.208Z,42.67
2018-03-04T19:30:05.385Z,40.53
2018-03-04T19:32:31.533Z,40.17
2018-03-04T19:34:57.708Z,41.90
2018-03-04T19:37:23.861Z,42.33
2018-03-04T19:39:50.757Z,42.65
2018-03-04T19:42:16.936Z,40.17
2018-03-04T19:44:43.820Z,42.42
2018-03-04T19:47:09.990Z,40.92
2018-03-04T19:49:36.164Z,42.62
2018-03-04T19:52:02.316Z,39.10
2018-03-04T19:54:28.608Z,41.70
2018-03-04T19:56:55.547Z,40.55
2018-03-04T19:59:21.704Z,41.67
2018-03-04T20:01:48.609Z,42.58
2018-03-04T20:04:14.771Z,40.35
2018-03-04T20:06:42.540Z,40.92
2018-03-04T20:09:09.449Z,40.75
2018-03-04T20:11:35.613Z,40.65
2018-03-04T20:14:02.133Z,42.65
2018-03-04T20:16:28.289Z,40.35
2018-03-04T20:18:54.435Z,40.12
2018-03-04T20:21:21.370Z,41.40
2018-03-04T20:23:47.532Z,42.53
2018-03-04T20:26:13.708Z,42.90
2018-03-04T20:28:40.178Z,42.47
2018-03-04T20:31:06.335Z,40.63
2018-03-04T20:33:32.977Z,39.97
2018-03-04T20:36:00.489Z,41.22
2018-03-04T20:38:26.666Z,41.00
2018-03-04T20:40:53.568Z,41.35
2018-03-04T20:43:19.732Z,39.60
2018-03-04T20:45:45.920Z,42.65
2018-03-04T20:48:12.079Z,42.45
2018-03-04T20:50:38.731Z,41.78
2018-03-04T20:53:04.951Z,43.72
2018-03-04T20:55:31.145Z,41.50
2018-03-04T20:57:58.336Z,41.45
2018-03-04T21:00:24.508Z,40.78
2018-03-04T21:02:50.701Z,40.63
2018-03-04T21:05:17.344Z,43.03
2018-03-04T21:07:43.687Z,40.50
2018-03-04T21:10:09.853Z,41.30
2018-03-04T21:12:36.268Z,41.72
2018-03-04T21:15:02.444Z,38.90
2018-03-04T21:17:28.677Z,40.97
2018-03-04T21:19:55.603Z,42.30
2018-03-04T21:22:21.780Z,40.05
2018-03-04T21:24:47.959Z,39.17
2018-03-04T21:27:14.112Z,40.03
2018-03-04T21:29:40.291Z,40.85
2018-03-04T21:32:06.453Z,40.90
2018-03-04T21:34:32.612Z,43.03
2018-03-04T21:37:00.521Z,42.72
2018-03-04T21:39:26.699Z,41.03
2018-03-04T21:41:52.856Z,38.92
2018-03-04T21:44:19.748Z,38.92
2018-03-04T21:46:46.695Z,40.08
2018-03-04T21:49:12.865Z,39.95
2018-03-04T21:51:39.040Z,45.63
2018-03-04T21:54:07.482Z,41.53
2018-03-04T21:56:35.934Z,43.53
2018-03-04T21:59:02.237Z,39.42
2018-03-04T22:01:30.205Z,42.03
2018-03-04T22:03:57.408Z,40.40
2018-03-04T22:06:23.590Z,41.53
2018-03-04T22:08:49.751Z,41.13
2018-03-04T22:11:16.172Z,40.63
2018-03-04T22:13:45.287Z,42.90
2018-03-04T22:16:12.081Z,42.10
2018-03-04T22:18:38.295Z,41.97
2018-03-04T22:21:06.686Z,41.72
2018-03-04T22:23:33.808Z,40.78
2018-03-04T22:26:02.003Z,41.10
2018-03-04T22:28:28.220Z,40.50
2018-03-04T22:30:54.384Z,39.08
2018-03-04T22:33:20.537Z,40.85
2018-03-04T22:35:46.718Z,41.40
2018-03-04T22:38:12.889Z,42.72
2018-03-04T22:40:39.059Z,41.45
2018-03-04T22:43:05.240Z,37.80
2018-03-04T22:45:31.388Z,40.15
2018-03-04T22:47:57.538Z,39.63
2018-03-04T22:50:23.712Z,38.50
2018-03-04T22:52:51.615Z,39.95
2018-03-04T22:55:17.768Z,40.78
2018-03-04T22:57:43.943Z,39.67
2018-03-04T23:00:11.843Z,39.47
2018-03-04T23:02:38.006Z,40.20
2018-03-04T23:05:04.164Z,41.60
2018-03-04T23:07:30.313Z,39.08
2018-03-04T23:09:57.584Z,38.45
2018-03-04T23:12:25.795Z,38.63
2018-03-04T23:14:53.751Z,40.50
2018-03-04T23:17:19.900Z,38.25
2018-03-04T23:19:46.076Z,41.55
2018-03-04T23:22:12.313Z,40.17
2018-03-04T23:24:38.492Z,40.58
2018-03-04T23:27:04.661Z,40.05
2018-03-04T23:29:31.592Z,41.42
2018-03-04T23:31:57.767Z,42.47
2018-03-04T23:34:25.718Z,37.22
2018-03-04T23:36:51.876Z,38.10
2018-03-04T23:39:18.792Z,38.72
2018-03-04T23:41:44.959Z,39.25
2018-03-04T23:44:11.184Z,40.35
2018-03-04T23:46:37.332Z,39.40
2018-03-04T23:49:04.248Z,40.38
2018-03-04T23:51:30.416Z,40.15
2018-03-04T23:53:56.575Z,40.10
2018-03-04T23:56:22.731Z,40.08
2018-03-04T23:58:48.899Z,38.60
